Airfield :
LOGIN :

Register | Disclaimer

   EN    FR    IT 

 










Legend :    VFR   Marginal VFR   IFR   Intensive IFR   Very Intensive IFR
Visi :
Ceiling :
>= 8 km
>= 3000ft
5 to 8 km
1000 to 3000 ft
1500m to 5 km
500 to 1000 ft
800 to 1500m
200 to 500 ft
< 800m
< 200 ft
Symbols :   Thunderstorms  Fog  Heavy snow  Heavy precipitations  Wind > 20 kt
SIGMETs :     Misc.  Thunderstorms  Icing  Turbulence  Mountain Waves  Volcanic Ashes







- Airport Elevation : 194 ft


EBCV - Chièvres

CURRENT METAR :
  • 160655Z AUTO 21012KT 9999 OVC023/// 05/03 Q1013 WHT

EXPIRED METARs :
  • 160644Z AUTO 21011KT 9999 OVC024/// 05/03 Q1013 WHT
  • 160625Z AUTO 21014KT 9999 OVC032/// 05/02 Q1013 BLU
  • 160555Z AUTO 21014KT 9999 OVC032/// 06/02 Q1013 BLU
  • 160525Z AUTO 21012KT 9999 OVC032/// 06/02 Q1014 BLU
  • 160455Z AUTO 20012KT 9999 OVC031/// 06/03 Q1014 BLU
  • 160425Z AUTO 21011KT 9999 OVC031/// 06/03 Q1014 BLU

TAF TAF EBCV
Valid from the 16 at 07:00 until the 16 at 16:00 UTC


160541Z 1607/1616 22010KT 9999 SCT025 BKN035
TEMPO 1607/1616 20012KT SCT028 BKN040
BECMG 1614/1616 SCT030 BKN045 OVC250
PROB30
TEMPO 1614/1616 20015G25KT 6000 -RA SCT018 BKN025 OVC220 BY EBWM
No reported NOTAMs for that airfield.



MET'MAP, your aeronautical weather chart ! - Copyright ORBIFLY December 2007 - Disclaimer

ORBIFLY MET'MAP TEAM :

Programming & Development : Alexandra Zaïnal
Concept & Development : Baudouin d'Aumeries
Co-Development & Prog : Marc-Olivier Méhu
Technical & hardware support : Manuel Goepfert

Contact : metmap@orbifly.com




SOURCES & CREDITS :

   NOAA